createdAt,value
2022-09-01T00:00:30.138Z,97674.94
2022-09-01T00:02:58.392Z,97664.91
2022-09-01T00:05:27.155Z,97660.25
2022-09-01T00:07:55.344Z,97643.44
2022-09-01T00:10:23.627Z,97667.81
2022-09-01T00:12:51.773Z,97671.47
2022-09-01T00:15:20.100Z,97672.56
2022-09-01T00:17:49.724Z,97668.41
2022-09-01T00:20:20.484Z,97670.13
2022-09-01T00:22:50.052Z,97672.50
2022-09-01T00:25:20.433Z,97666.69
2022-09-01T00:27:49.485Z,97662.09
2022-09-01T00:30:17.803Z,97657.88
2022-09-01T00:32:47.012Z,97659.63
2022-09-01T00:35:18.703Z,97660.63
2022-09-01T00:37:47.063Z,97653.94
2022-09-01T00:40:17.273Z,97661.34
2022-09-01T00:42:46.322Z,97660.09
2022-09-01T00:45:14.581Z,97669.13
2022-09-01T00:47:43.360Z,97669.59
2022-09-01T00:50:14.062Z,97649.91
2022-09-01T00:52:49.231Z,97668.25
2022-09-01T00:55:22.890Z,97657.22
2022-09-01T00:57:51.320Z,97634.75
2022-09-01T01:00:22.559Z,97666.53
2022-09-01T01:02:56.073Z,97657.06
2022-09-01T01:05:28.072Z,97583.50
2022-09-01T01:07:57.991Z,97658.91
2022-09-01T01:10:27.140Z,97668.41
2022-09-01T01:12:56.350Z,97669.50
2022-09-01T01:15:24.639Z,97662.59
2022-09-01T01:17:52.802Z,97663.59
2022-09-01T01:20:40.519Z,97653.31
2022-09-01T01:23:17.979Z,97652.84
2022-09-01T01:25:51.683Z,97647.78
2022-09-01T01:28:22.893Z,97446.28
2022-09-01T01:30:54.500Z,97662.09
2022-09-01T01:33:25.730Z,97653.75
2022-09-01T01:35:57.690Z,97662.19
2022-09-01T01:38:27.611Z,97542.56
2022-09-01T01:40:57.307Z,97662.41
2022-09-01T01:43:26.564Z,97661.59
2022-09-01T01:46:02.747Z,97662.53
2022-09-01T01:48:34.921Z,97664.97
2022-09-01T01:51:04.753Z,97669.41
2022-09-01T01:53:33.979Z,97647.78
2022-09-01T01:56:05.042Z,97655.63
2022-09-01T01:58:35.040Z,97658.91
2022-09-01T02:01:03.810Z,97570.13
2022-09-01T02:03:38.893Z,97649.75
2022-09-01T02:06:09.908Z,97659.91
2022-09-01T02:08:39.640Z,97656.38
2022-09-01T02:11:11.159Z,97658.09
2022-09-01T02:13:39.956Z,97644.38
2022-09-01T02:16:12.245Z,97657.66
2022-09-01T02:18:42.960Z,97663.69
2022-09-01T02:21:18.318Z,97645.38
2022-09-01T02:23:49.031Z,97660.19
2022-09-01T02:26:19.211Z,97637.94
2022-09-01T02:28:54.630Z,97657.66
2022-09-01T02:31:24.302Z,97665.50
2022-09-01T02:33:54.580Z,97656.72
2022-09-01T02:36:25.368Z,97635.31
2022-09-01T02:38:56.633Z,97646.44
2022-09-01T02:41:29.477Z,97646.44
2022-09-01T02:43:58.760Z,97645.75
2022-09-01T02:46:26.949Z,97649.31
2022-09-01T02:48:55.150Z,97651.09
2022-09-01T02:51:26.482Z,97658.47
2022-09-01T02:53:55.198Z,97629.69
2022-09-01T02:56:27.771Z,97652.84
2022-09-01T02:58:57.560Z,97659.47
2022-09-01T03:01:29.858Z,97644.13
2022-09-01T03:04:00.620Z,97657.59
2022-09-01T03:06:29.373Z,97656.56
2022-09-01T03:09:00.411Z,97656.56
2022-09-01T03:11:30.200Z,97624.66
2022-09-01T03:14:00.108Z,97659.00
2022-09-01T03:16:30.637Z,97654.00
2022-09-01T03:18:59.900Z,97654.34
2022-09-01T03:21:28.259Z,97637.28
2022-09-01T03:23:58.336Z,97649.00
2022-09-01T03:26:26.780Z,97628.06
2022-09-01T03:28:54.953Z,97609.09
2022-09-01T03:31:27.589Z,97634.34
2022-09-01T03:34:00.870Z,97637.00
2022-09-01T03:36:30.194Z,97633.41
2022-09-01T03:38:58.979Z,97629.38
2022-09-01T03:41:30.960Z,97614.59
2022-09-01T03:43:59.814Z,97589.59
2022-09-01T03:46:36.264Z,97613.16
2022-09-01T03:49:07.576Z,97621.44
2022-09-01T03:51:38.092Z,97624.13
2022-09-01T03:54:06.759Z,97580.44
2022-09-01T03:56:34.899Z,97616.50
2022-09-01T03:59:03.099Z,97616.44
2022-09-01T04:01:43.910Z,97631.19
2022-09-01T04:04:14.131Z,97632.69
2022-09-01T04:06:42.773Z,97608.56
2022-09-01T04:09:11.350Z,97635.84
2022-09-01T04:11:45.605Z,97624.28
2022-09-01T04:14:14.999Z,97621.84
2022-09-01T04:17:02.703Z,97598.91
2022-09-01T04:19:34.944Z,97619.88
2022-09-01T04:22:03.880Z,97625.03
2022-09-01T04:24:35.010Z,97595.09
2022-09-01T04:27:04.685Z,97613.09
2022-09-01T04:29:33.554Z,97624.22
2022-09-01T04:32:05.869Z,97619.13
2022-09-01T04:34:38.031Z,97604.59
2022-09-01T04:37:10.512Z,97521.38
2022-09-01T04:39:39.441Z,97593.91
2022-09-01T04:42:09.455Z,97603.25
2022-09-01T04:44:38.264Z,97593.81
2022-09-01T04:47:16.759Z,97609.56
2022-09-01T04:49:45.901Z,97607.94
2022-09-01T04:52:14.300Z,97611.28
2022-09-01T04:54:44.899Z,97603.22
2022-09-01T04:57:13.521Z,97615.88
2022-09-01T04:59:43.269Z,97600.72
2022-09-01T05:02:12.841Z,97604.94
2022-09-01T05:04:41.969Z,97609.09
2022-09-01T05:07:10.445Z,97598.22
2022-09-01T05:09:39.478Z,97568.63
2022-09-01T05:12:15.549Z,97559.44
2022-09-01T05:14:47.426Z,97602.91
2022-09-01T05:17:17.716Z,97597.31
2022-09-01T05:19:48.753Z,97522.31
2022-09-01T05:22:19.158Z,97597.06
2022-09-01T05:24:47.399Z,97608.38
2022-09-01T05:27:16.155Z,97606.41
2022-09-01T05:29:47.050Z,97604.31
2022-09-01T05:32:16.890Z,97603.16
2022-09-01T05:34:46.281Z,97603.78
2022-09-01T05:37:16.323Z,97586.50
2022-09-01T05:39:44.518Z,97590.88
2022-09-01T05:42:12.786Z,97594.25
2022-09-01T05:44:44.391Z,97577.75
2022-09-01T05:47:20.022Z,97596.38
2022-09-01T05:49:51.156Z,97580.31
2022-09-01T05:52:26.278Z,97559.88
2022-09-01T05:54:55.671Z,97595.97
2022-09-01T05:57:34.274Z,97597.69
2022-09-01T06:00:11.085Z,97574.19
2022-09-01T06:02:40.277Z,97584.44
2022-09-01T06:05:11.741Z,97581.56
2022-09-01T06:07:43.001Z,97575.31
2022-09-01T06:10:13.132Z,97592.84
2022-09-01T06:12:41.321Z,97612.75
2022-09-01T06:15:16.391Z,97606.16
2022-09-01T06:17:46.186Z,97571.75
2022-09-01T06:20:18.420Z,97557.00
2022-09-01T06:22:47.828Z,97577.59
2022-09-01T06:25:17.517Z,97594.44
2022-09-01T06:27:46.261Z,97584.91
2022-09-01T06:30:20.118Z,97604.91
2022-09-01T06:32:51.859Z,97594.94
2022-09-01T06:35:25.336Z,97596.09
2022-09-01T06:37:53.945Z,97612.63
2022-09-01T06:40:22.506Z,97602.56
2022-09-01T06:42:52.990Z,97617.00
2022-09-01T06:45:24.195Z,97614.66
2022-09-01T06:47:59.593Z,97598.97
2022-09-01T06:53:37.285Z,97573.53
2022-09-01T06:56:09.151Z,97592.47
2022-09-01T06:58:38.410Z,97609.38
2022-09-01T07:01:16.175Z,97592.22
2022-09-01T07:03:45.216Z,97624.84
2022-09-01T07:09:20.118Z,97632.19
2022-09-01T07:16:31.975Z,97641.69
2022-09-01T07:17:26.434Z,97646.63
2022-09-01T07:19:56.203Z,97650.59
2022-09-01T07:25:13.867Z,97651.66
2022-09-01T07:27:50.675Z,97653.94
2022-09-01T07:30:20.888Z,97646.16
2022-09-01T07:32:54.189Z,97644.75
2022-09-01T07:35:23.994Z,97639.44
2022-09-01T07:43:34.312Z,97655.72
2022-09-01T07:49:29.601Z,97659.97
2022-09-01T07:51:45.660Z,97633.22
2022-09-01T07:54:15.350Z,97653.06
2022-09-01T07:56:44.640Z,97627.63
2022-09-01T07:59:15.670Z,97628.81
2022-09-01T08:01:44.117Z,97637.50
2022-09-01T08:04:12.416Z,97651.16
2022-09-01T08:06:41.512Z,97653.41
2022-09-01T08:09:11.808Z,97659.97
2022-09-01T08:12:03.173Z,97640.09
2022-09-01T08:14:35.342Z,97655.94
2022-09-01T08:19:53.682Z,97649.81
2022-09-01T08:22:24.525Z,97654.44
2022-09-01T08:24:53.302Z,97638.34
2022-09-01T08:27:23.323Z,97647.69
2022-09-01T08:29:51.522Z,97652.06
2022-09-01T08:32:20.700Z,97663.06
2022-09-01T08:34:48.901Z,97653.97
2022-09-01T08:37:17.065Z,97658.56
2022-09-01T08:39:48.541Z,97657.31
2022-09-01T08:42:33.019Z,97665.06
2022-09-01T08:45:08.710Z,97662.84
2022-09-01T08:47:55.988Z,97645.59
2022-09-01T08:50:25.787Z,97649.94
2022-09-01T08:53:09.585Z,97664.34
2022-09-01T08:55:43.294Z,97653.25
2022-09-01T08:58:16.789Z,97637.78
2022-09-01T09:00:54.882Z,97647.13
2022-09-01T09:03:40.903Z,97626.22
2022-09-01T09:06:18.682Z,97627.59
2022-09-01T09:08:56.805Z,97623.13
2022-09-01T09:11:55.811Z,97633.78
2022-09-01T09:14:44.993Z,97633.22
2022-09-01T09:17:17.487Z,97636.72
2022-09-01T09:19:46.819Z,97634.91
2022-09-01T09:22:17.762Z,97621.06
2022-09-01T09:24:51.700Z,97640.03
2022-09-01T09:27:23.681Z,97633.38
2022-09-01T09:29:55.447Z,97636.75
2022-09-01T09:32:44.381Z,97626.28
2022-09-01T09:35:25.925Z,97629.56
2022-09-01T09:37:56.129Z,97630.00
2022-09-01T09:40:26.629Z,97613.28
2022-09-01T09:43:05.762Z,97630.44
2022-09-01T09:45:37.987Z,97617.97
2022-09-01T09:48:11.251Z,97634.25
2022-09-01T09:50:41.204Z,97621.47
2022-09-01T09:53:17.142Z,97634.06
2022-09-01T09:55:56.540Z,97600.56
2022-09-01T09:58:28.027Z,97614.31
2022-09-01T10:01:11.292Z,97612.41
2022-09-01T10:03:43.394Z,97464.97
2022-09-01T10:06:14.235Z,97590.41
2022-09-01T10:08:46.149Z,97600.34
2022-09-01T10:11:33.574Z,97603.94
2022-09-01T10:14:08.071Z,97583.44
2022-09-01T10:16:42.128Z,97575.44
2022-09-01T10:19:16.424Z,97558.28
2022-09-01T10:21:46.274Z,97598.25
2022-09-01T10:24:22.286Z,97604.06
2022-09-01T10:26:58.404Z,97575.19
2022-09-01T10:29:34.776Z,97568.38
2022-09-01T10:32:31.370Z,97531.09
2022-09-01T10:34:59.764Z,97600.59
2022-09-01T10:37:28.880Z,97592.06
2022-09-01T10:40:20.696Z,97592.81
2022-09-01T10:42:55.287Z,97591.75
2022-09-01T10:45:34.857Z,97594.81
2022-09-01T10:48:33.358Z,97601.97
2022-09-01T10:51:50.489Z,97607.06
2022-09-01T10:54:55.599Z,97596.56
2022-09-01T10:57:45.940Z,97601.31
2022-09-01T11:04:02.143Z,97601.25
2022-09-01T11:07:11.596Z,97593.09
2022-09-01T11:09:36.924Z,97599.06
2022-09-01T11:12:47.986Z,97603.47
2022-09-01T11:15:39.446Z,97595.34
2022-09-01T11:18:17.387Z,97590.28
2022-09-01T11:20:48.995Z,97610.19
2022-09-01T11:23:25.361Z,97614.59
2022-09-01T11:28:44.259Z,97618.06
2022-09-01T11:31:40.209Z,97616.09
2022-09-01T11:34:15.269Z,97598.19
2022-09-01T11:37:03.049Z,97618.28
2022-09-01T11:39:40.923Z,97618.81
2022-09-01T11:42:14.857Z,97572.06
2022-09-01T11:44:49.600Z,97616.13
2022-09-01T11:47:19.400Z,97619.78
2022-09-01T11:49:55.037Z,97604.09
2022-09-01T11:52:27.459Z,97596.88
2022-09-01T11:54:55.799Z,97594.44
2022-09-01T11:57:29.053Z,97614.41
2022-09-01T11:59:58.779Z,97620.28
2022-09-01T12:02:32.099Z,97612.50
2022-09-01T12:05:01.720Z,97617.81
2022-09-01T12:07:41.200Z,97517.84
2022-09-01T12:10:21.900Z,97597.81
2022-09-01T12:12:50.114Z,97615.44
2022-09-01T12:15:23.849Z,97611.41
2022-09-01T12:17:53.010Z,97619.69
2022-09-01T12:20:28.851Z,97615.41
2022-09-01T12:23:00.479Z,97618.06
2022-09-01T12:25:31.771Z,97547.16
2022-09-01T12:28:02.351Z,97603.25
2022-09-01T12:30:35.361Z,97606.28
2022-09-01T12:33:23.496Z,97600.56
2022-09-01T12:35:56.051Z,97605.69
2022-09-01T12:38:31.881Z,97568.97
2022-09-01T12:41:00.345Z,97592.72
2022-09-01T12:43:31.016Z,97590.97
2022-09-01T12:46:02.902Z,97581.94
2022-09-01T12:48:34.241Z,97613.38
2022-09-01T12:51:05.234Z,97616.75
2022-09-01T12:53:37.253Z,97586.91
2022-09-01T12:56:21.323Z,97538.81
2022-09-01T12:58:54.667Z,97601.44
2022-09-01T13:01:30.204Z,97574.69
2022-09-01T13:04:17.680Z,97605.53
2022-09-01T13:06:46.122Z,97603.03
2022-09-01T13:09:15.670Z,97618.22
2022-09-01T13:14:32.680Z,97609.78
2022-09-01T13:17:01.052Z,97612.84
2022-09-01T13:19:30.536Z,97611.63
2022-09-01T13:21:59.073Z,97609.94
2022-09-01T13:24:31.277Z,97590.47
2022-09-01T13:29:48.380Z,97605.63
2022-09-01T13:32:18.839Z,97615.13
2022-09-01T13:34:49.243Z,97607.56
2022-09-01T13:37:19.487Z,97610.38
2022-09-01T13:39:51.326Z,97614.75
2022-09-01T13:42:19.761Z,97607.50
2022-09-01T13:44:52.366Z,97621.28
2022-09-01T13:47:32.011Z,97618.56
2022-09-01T13:50:11.195Z,97610.03
2022-09-01T13:52:41.239Z,97595.66
2022-09-01T13:55:14.179Z,97576.16
2022-09-01T13:57:42.649Z,97604.19
2022-09-01T14:00:13.490Z,97605.47
2022-09-01T14:02:43.411Z,97609.63
2022-09-01T14:05:12.331Z,97596.44
2022-09-01T14:07:40.609Z,97621.13
2022-09-01T14:10:11.726Z,97582.56
2022-09-01T14:12:41.751Z,97597.28
2022-09-01T14:15:15.639Z,97619.03
2022-09-01T14:17:46.439Z,97606.44
2022-09-01T14:20:18.479Z,97596.66
2022-09-01T14:22:47.659Z,97619.56
2022-09-01T14:25:18.979Z,97605.19
2022-09-01T14:27:47.931Z,97615.72
2022-09-01T14:30:20.180Z,97618.19
2022-09-01T14:32:49.169Z,97615.53
2022-09-01T14:35:19.452Z,97576.44
2022-09-01T14:37:47.901Z,97624.91
2022-09-01T14:40:18.481Z,97626.69
2022-09-01T14:42:49.306Z,97621.59
2022-09-01T14:45:18.838Z,97620.53
2022-09-01T14:47:47.714Z,97623.19
2022-09-01T14:50:19.989Z,97628.22
2022-09-01T14:52:53.724Z,97617.97
2022-09-01T14:55:25.022Z,97615.19
2022-09-01T14:57:55.113Z,97519.84
2022-09-01T15:00:25.458Z,97616.50
2022-09-01T15:02:55.141Z,97606.16
2022-09-01T15:05:24.516Z,97611.81
2022-09-01T15:07:53.105Z,97611.69
2022-09-01T15:10:26.121Z,97602.41
2022-09-01T15:12:56.080Z,97615.44
2022-09-01T15:15:25.015Z,97616.50
2022-09-01T15:17:53.393Z,97597.22
2022-09-01T15:20:39.515Z,97631.94
2022-09-01T15:23:08.232Z,97620.03
2022-09-01T15:25:37.789Z,97624.16
2022-09-01T15:28:06.748Z,97622.44
2022-09-01T15:30:35.870Z,97627.78
2022-09-01T15:33:05.216Z,97622.44
2022-09-01T15:35:34.359Z,97621.84
2022-09-01T15:38:02.640Z,97630.13
2022-09-01T15:40:31.034Z,97618.72
2022-09-01T15:43:01.336Z,97630.66
2022-09-01T15:45:30.317Z,97621.59
2022-09-01T15:47:58.514Z,97613.91
2022-09-01T15:50:28.587Z,97625.66
2022-09-01T15:52:59.623Z,97610.50
2022-09-01T15:55:29.994Z,97622.00
2022-09-01T15:58:00.703Z,97614.75
2022-09-01T16:00:30.078Z,97620.63
2022-09-01T16:03:01.862Z,97634.59
2022-09-01T16:05:30.580Z,97629.88
2022-09-01T16:07:59.071Z,97628.72
2022-09-01T16:10:27.679Z,97618.75
2022-09-01T16:12:56.100Z,97627.88
2022-09-01T16:15:26.712Z,97628.84
2022-09-01T16:18:14.751Z,97609.91
2022-09-01T16:20:51.520Z,97624.66
2022-09-01T16:23:22.047Z,97638.13
2022-09-01T16:25:51.230Z,97636.84
2022-09-01T16:28:27.770Z,97631.00
2022-09-01T16:31:03.499Z,97525.75
2022-09-01T16:33:33.969Z,97617.84
2022-09-01T16:36:18.114Z,97618.06
2022-09-01T16:38:51.433Z,97628.38
2022-09-01T16:41:41.211Z,97610.16
2022-09-01T16:44:23.910Z,97617.25
2022-09-01T16:47:04.032Z,97612.78
2022-09-01T16:49:38.190Z,97628.56
2022-09-01T16:52:14.855Z,97624.38
2022-09-01T16:55:01.040Z,97573.31
2022-09-01T16:57:41.538Z,97619.00
2022-09-01T17:00:13.515Z,97639.91
2022-09-01T17:02:50.530Z,97646.56
2022-09-01T17:05:28.001Z,97649.22
2022-09-01T17:08:07.806Z,97640.75
2022-09-01T17:10:43.050Z,97641.66
2022-09-01T17:13:22.870Z,97643.63
2022-09-01T17:15:58.469Z,97658.06
2022-09-01T17:18:35.360Z,97638.81
2022-09-01T17:21:12.750Z,97631.69
2022-09-01T17:23:48.920Z,97669.88
2022-09-01T17:26:22.602Z,97670.25
2022-09-01T17:28:56.462Z,97678.69
2022-09-01T17:31:42.813Z,97676.91
2022-09-01T17:34:29.315Z,97675.47
2022-09-01T17:37:05.623Z,97688.75
2022-09-01T17:39:43.780Z,97682.88
2022-09-01T17:42:21.688Z,97679.44
2022-09-01T17:44:56.361Z,97681.63
2022-09-01T17:47:35.992Z,97677.38
2022-09-01T17:50:10.994Z,97688.38
2022-09-01T17:52:52.501Z,97693.50
2022-09-01T17:55:35.489Z,97679.53
2022-09-01T17:58:13.481Z,97697.69
2022-09-01T18:00:53.550Z,97700.34
2022-09-01T18:03:44.332Z,97680.88
2022-09-01T18:06:24.281Z,97707.47
2022-09-01T18:08:55.120Z,97706.03
2022-09-01T18:11:27.960Z,97709.63
2022-09-01T18:13:59.818Z,97715.81
2022-09-01T18:16:31.116Z,97715.63
2022-09-01T18:19:04.272Z,97715.72
2022-09-01T18:21:37.944Z,97722.53
2022-09-01T18:24:16.843Z,97713.72
2022-09-01T18:26:47.954Z,97729.47
2022-09-01T18:29:16.881Z,97682.38
2022-09-01T18:32:12.556Z,97733.00
2022-09-01T18:34:58.175Z,97731.34
2022-09-01T18:37:33.400Z,97711.31
2022-09-01T18:40:12.303Z,97722.53
2022-09-01T18:42:49.941Z,97736.03
2022-09-01T18:45:29.445Z,97747.09
2022-09-01T18:48:05.723Z,97740.47
2022-09-01T18:50:43.724Z,97740.28
2022-09-01T18:53:26.222Z,97741.97
2022-09-01T18:56:02.203Z,97734.00
2022-09-01T18:58:45.891Z,97730.66
2022-09-01T19:01:15.543Z,97741.88
2022-09-01T19:03:49.923Z,97721.34
2022-09-01T19:06:31.633Z,97745.09
2022-09-01T19:09:11.950Z,97738.47
2022-09-01T19:11:52.266Z,97740.16
2022-09-01T19:14:30.461Z,97748.03
2022-09-01T19:17:10.612Z,97747.19
2022-09-01T19:19:44.400Z,97742.06
2022-09-01T19:22:19.082Z,97753.06
2022-09-01T19:25:15.143Z,97733.88
2022-09-01T19:27:43.890Z,97744.13
2022-09-01T19:30:12.230Z,97753.06
2022-09-01T19:32:41.039Z,97749.44
2022-09-01T19:35:13.124Z,97736.91
2022-09-01T19:37:44.092Z,97754.44
2022-09-01T19:40:21.915Z,97757.78
2022-09-01T19:43:01.201Z,97757.19
2022-09-01T19:45:39.760Z,97757.03
2022-09-01T19:48:15.888Z,97747.41
2022-09-01T19:50:51.024Z,97675.41
2022-09-01T19:53:33.981Z,97759.00
2022-09-01T19:56:10.791Z,97753.38
2022-09-01T19:58:56.763Z,97744.97
2022-09-01T20:01:39.378Z,97761.84
2022-09-01T20:04:18.516Z,97760.56
2022-09-01T20:06:52.304Z,97684.84
2022-09-01T20:09:25.554Z,97755.84
2022-09-01T20:12:00.194Z,97722.63
2022-09-01T20:14:52.192Z,97757.75
2022-09-01T20:17:27.301Z,97762.84
2022-09-01T20:20:01.515Z,97764.84
2022-09-01T20:22:36.862Z,97725.03
2022-09-01T20:25:10.762Z,97740.28
2022-09-01T20:27:48.842Z,97747.81
2022-09-01T20:30:20.703Z,97765.78
2022-09-01T20:32:57.282Z,97766.13
2022-09-01T20:35:36.287Z,97750.22
2022-09-01T20:38:33.822Z,97730.56
2022-09-01T20:41:05.200Z,97757.06
2022-09-01T20:43:41.489Z,97769.22
2022-09-01T20:46:10.027Z,97742.63
2022-09-01T20:48:40.781Z,97771.09
2022-09-01T20:51:15.200Z,97770.75
2022-09-01T20:54:02.602Z,97756.38
2022-09-01T20:56:40.440Z,97768.59
2022-09-01T20:59:18.180Z,97757.50
2022-09-01T21:01:54.154Z,97751.28
2022-09-01T21:04:36.633Z,97775.66
2022-09-01T21:07:09.549Z,97738.09
2022-09-01T21:09:50.582Z,97781.31
2022-09-01T21:12:27.290Z,97734.50
2022-09-01T21:15:10.460Z,97768.91
2022-09-01T21:17:46.090Z,97769.44
2022-09-01T21:20:23.260Z,97784.81
2022-09-01T21:22:52.200Z,97774.47
2022-09-01T21:25:20.451Z,97768.25
2022-09-01T21:27:55.589Z,97773.78
2022-09-01T21:30:26.631Z,97769.00
2022-09-01T21:32:56.840Z,97772.53
2022-09-01T21:35:25.730Z,97753.25
2022-09-01T21:37:54.039Z,97775.94
2022-09-01T21:40:25.422Z,97768.59
2022-09-01T21:42:57.437Z,97753.41
2022-09-01T21:45:27.357Z,97765.69
2022-09-01T21:47:55.822Z,97741.44
2022-09-01T21:50:26.062Z,97773.03
2022-09-01T21:52:54.325Z,97746.25
2022-09-01T21:55:23.403Z,97729.13
2022-09-01T21:57:51.887Z,97757.97
2022-09-01T22:00:24.709Z,97759.28
2022-09-01T22:02:54.801Z,97759.66
2022-09-01T22:05:26.303Z,97751.22
2022-09-01T22:07:56.139Z,97754.47
2022-09-01T22:10:28.571Z,97712.78
2022-09-01T22:12:57.925Z,97724.19
2022-09-01T22:15:27.179Z,97746.00
2022-09-01T22:17:57.732Z,97739.94
2022-09-01T22:20:28.639Z,97737.97
2022-09-01T22:23:01.955Z,97732.47
2022-09-01T22:25:31.332Z,97736.91
2022-09-01T22:27:59.945Z,97738.13
2022-09-01T22:30:28.151Z,97742.94
2022-09-01T22:32:59.929Z,97704.47
2022-09-01T22:35:28.191Z,97739.13
2022-09-01T22:37:56.597Z,97738.91
2022-09-01T22:40:24.880Z,97731.34
2022-09-01T22:42:53.141Z,97729.75
2022-09-01T22:45:21.450Z,97720.75
2022-09-01T22:47:49.611Z,97718.50
2022-09-01T22:50:19.379Z,97734.41
2022-09-01T22:52:47.570Z,97724.59
2022-09-01T22:55:16.434Z,97724.66
2022-09-01T22:57:44.611Z,97667.97
2022-09-01T23:00:14.094Z,97715.00
2022-09-01T23:02:42.398Z,97728.47
2022-09-01T23:05:11.144Z,97732.25
2022-09-01T23:07:40.999Z,97723.59
2022-09-01T23:10:10.413Z,97728.53
2022-09-01T23:12:38.678Z,97666.50
2022-09-01T23:15:08.140Z,97699.56
2022-09-01T23:17:38.027Z,97667.97
2022-09-01T23:20:10.059Z,97726.31
2022-09-01T23:22:38.269Z,97502.22
2022-09-01T23:25:09.813Z,97712.13
2022-09-01T23:27:38.127Z,97727.78
2022-09-01T23:30:09.091Z,97726.31
2022-09-01T23:32:37.576Z,97691.91
2022-09-01T23:35:06.460Z,97723.50
2022-09-01T23:37:34.669Z,97717.88
2022-09-01T23:40:02.901Z,97722.34
2022-09-01T23:42:32.530Z,97720.97
2022-09-01T23:45:00.670Z,97705.31
2022-09-01T23:47:31.346Z,97722.00
2022-09-01T23:49:59.924Z,97713.25
2022-09-01T23:52:28.191Z,97716.09
2022-09-01T23:54:56.330Z,97709.75
2022-09-01T23:57:24.695Z,97712.56
2022-09-01T23:59:57.136Z,97709.31
